Aeroporto :
LOGIN :

Iscrizione | Disclaimer

   EN    FR    IT 

 










Sommario :    VFR   VFR Marginale   IFR   IFR Intensivo   IFR Molto Intensivo
Visibilità : 
Base nubi : 
>= 8 km
>= 3000ft
5 / 8 km
1000 / 3000 ft
1500m / 5 km
500 / 1000 ft
800 / 1500m
200 / 500 ft
< 800m
< 200 ft
Simboli :   Temporali  Nebbia  Neve Forte  Precipitazioni Forti  Vento > 20 kt
SIGMETs :   Varie  Temporali  Ghiacco  Turbolenza  Onda orograficha  Ceneri Vulcaniche






- Altitudine del aeroporto : 187 ft


LPMR - Monte Real Air Base

ULTIMO METAR :
  • 250000Z 34003KT 300V010 9999 BKN016 11/08 Q1027

METARs OBSOLETI :
  • 242300Z 34003KT 9999 BKN016 11/08 Q1027
  • 242200Z 36004KT 9999 BKN016 11/08 Q1028

TAF TAF LPMR
Valido dal 25 a 00 ore il 26 a 00 ore UTC


242303Z 2500/2524 34005KT 9999 SCT015
TEMPO 2500/2509 BKN012
BECMG 2508/2510 24008KT 8000 -RA SCT008 BKN012
PROB40 2509/2513 3000 DZRA SCT006 BKN008
BECMG 2512/2514 34010KT NSW SCT020 BKN035
TEMPO 2512/2518 35012G25KT



MetMap, La meteo Aeronautica in un colpo d'occhio ! - Copyright ORBIFLY Dicembre 2007 - Disclaimer

ORBIFLY MET'MAP TEAM :

Programmazione e sviluppo : Alexandra Zaïnal
Concezione : Baudouin d'Aumeries
Aiuto per la programmazione : Marc-Olivier Méhu
Supporto tecnico e logistico : Manuel Goepfert
Aiuto per la traduzione : Arnaldo La Scala

Contatto : metmap@orbifly.com




FONTI E CREDITI :

   NOAA